Keswick, IA

4:22 AM CDT on July 23, 2014 (GMT -0500)
Fairfield Municipal (KFFL) Elev 801 ft | 41.05 °N, 91.98 °W | Change Station

Current weather conditions updated 7 minutes ago

Clear
Clear
68 °F
Feels Like 68 °F
N
7
Wind Variable Wind from North

Today is forecast to be Cooler than yesterday.

Today
High -- | Low -- °F
--% Chance of Precip.
Yesterday
High -- | Low -- °F
Precip. -- in
5:55 AM 8:35 PM
Waning Crescent, 11% visible
Pressure 30.11 in
Visibility 10.0 miles
Clouds Clear
Dew Point 64 °F
Humidity 88%
Rainfall 0.00 in
Snow Depth Not available.
UV 0 out of 12
Pollen 6.00 out of 12
Air Quality Not available.
Flu Activity Not available.
METAR KFFL 230915Z AUTO 35006KT 10SM CLR 20/18 A3011 RMK AO2

More Conditions Fewer Conditions

Pressure 30.11 in
Visibility 10.0 miles
Clouds Clear
Dew Point 64 °F
Humidity 88%
Rainfall 0.00 in
Snow Depth Not available.
UV 0 out of 12
Pollen 6.00 out of 12
Air Quality Not available.
Flu Activity Not available.
METAR KFFL 230915Z AUTO 35006KT 10SM CLR 20/18 A3011 RMK AO2

More Conditions Fewer Conditions

10-Day Weather Forecast

Almanac

Astronomy

Jul. 23, 2014 Rise Set
Actual Time 5:55 AM CDT 8:35 PM CDT
Civil Twilight 5:23 AM CDT 9:07 PM CDT
Nautical Twilight 4:42 AM CDT 9:47 PM CDT
Astronomical Twilight 3:57 AM CDT 10:32 PM CDT
Moon 3:14 AM CDT 6:04 PM CDT
Length of Visible Light 15h 44m
Length of Day
14h 39m
Tomorrow will be 1m 48s shorter.
Waning Crescent, 11% of the Moon is Illuminated
Today
Waning Crescent
Jul 26
New
Aug 3
First Quarter
Aug 10
Full
Aug 17
Last Quarter

Today's Extremes

State Highs State Lows

Community

WunderPhotos

Upload Photos

1,736,535 photos uploaded!

Nearby

Snow Depth

Station Depth Elevation
No new snow has been reported.

Earthquake Activity

City Distance Mag. Time & Date
No recent earthquake activity has been reported nearby.
Minimum magnitude displayed is 2.5.

Coastal Water Temperatures

Place Temperature
No Stations Reporting

Nearby Weather Stations

Station Location Temp. Dew Point Humidity Wind Precip. Elev Updated Type
Dietze Weather Station, Millersburg, IA 67.0 °F 64 °F 90% NNW  at  0.4 mph 0.00 in / hr 883 ft 4:22 AM CDT Rapid Fire
Williamsburg South, Williamsburg, IA 65.3 °F 64 °F 95% NNW  at  5.3 mph 0.00 in / hr 879 ft 4:21 AM CDT Rapid Fire
Williamsburg, IA 66.9 °F 60 °F 79% North  at  0.0 mph 0.00 in / hr 820 ft 4:21 AM CDT Rapid Fire
Oskaloosa, IA 67.7 °F 63 °F 85% North  at  0.0 mph 0.00 in / hr 846 ft 4:22 AM CDT Rapid Fire

Show More Stations Show Fewer Stations